sensor_id;sensor_type;location;lat;lon;timestamp;P1;durP1;ratioP1;P2;durP2;ratioP2
16407;SDS011;8313;49.894;8.084;2022-08-18T00:01:39;10.97;;;9.87;;
16407;SDS011;8313;49.894;8.084;2022-08-18T00:04:07;10.40;;;9.50;;
16407;SDS011;8313;49.894;8.084;2022-08-18T00:06:33;10.43;;;9.30;;
16407;SDS011;8313;49.894;8.084;2022-08-18T00:09:00;10.73;;;9.73;;
16407;SDS011;8313;49.894;8.084;2022-08-18T00:11:28;10.83;;;9.80;;
16407;SDS011;8313;49.894;8.084;2022-08-18T00:13:56;10.80;;;9.80;;
16407;SDS011;8313;49.894;8.084;2022-08-18T00:16:22;10.93;;;9.83;;
16407;SDS011;8313;49.894;8.084;2022-08-18T00:18:48;12.73;;;10.40;;
16407;SDS011;8313;49.894;8.084;2022-08-18T00:21:14;10.87;;;9.87;;
16407;SDS011;8313;49.894;8.084;2022-08-18T00:23:41;10.23;;;9.23;;
16407;SDS011;8313;49.894;8.084;2022-08-18T00:26:06;10.50;;;9.50;;
16407;SDS011;8313;49.894;8.084;2022-08-18T00:28:32;11.07;;;10.00;;
16407;SDS011;8313;49.894;8.084;2022-08-18T00:30:58;11.43;;;10.37;;
16407;SDS011;8313;49.894;8.084;2022-08-18T00:33:24;12.90;;;9.97;;
16407;SDS011;8313;49.894;8.084;2022-08-18T00:35:49;13.33;;;10.90;;
16407;SDS011;8313;49.894;8.084;2022-08-18T00:38:15;11.30;;;10.20;;
16407;SDS011;8313;49.894;8.084;2022-08-18T00:40:45;10.17;;;9.37;;
16407;SDS011;8313;49.894;8.084;2022-08-18T00:43:23;11.83;;;10.53;;
16407;SDS011;8313;49.894;8.084;2022-08-18T00:46:07;10.90;;;9.80;;
16407;SDS011;8313;49.894;8.084;2022-08-18T00:48:35;10.60;;;9.50;;
16407;SDS011;8313;49.894;8.084;2022-08-18T00:51:03;10.87;;;9.47;;
16407;SDS011;8313;49.894;8.084;2022-08-18T00:53:40;11.43;;;10.33;;
16407;SDS011;8313;49.894;8.084;2022-08-18T00:56:13;11.87;;;10.67;;
16407;SDS011;8313;49.894;8.084;2022-08-18T00:58:43;12.60;;;11.40;;
16407;SDS011;8313;49.894;8.084;2022-08-18T01:01:14;12.43;;;10.40;;
16407;SDS011;8313;49.894;8.084;2022-08-18T01:03:43;12.37;;;11.17;;
16407;SDS011;8313;49.894;8.084;2022-08-18T01:06:26;11.13;;;10.13;;
16407;SDS011;8313;49.894;8.084;2022-08-18T01:08:53;11.57;;;10.57;;
16407;SDS011;8313;49.894;8.084;2022-08-18T01:11:20;11.87;;;10.60;;
16407;SDS011;8313;49.894;8.084;2022-08-18T01:13:45;11.40;;;10.30;;
16407;SDS011;8313;49.894;8.084;2022-08-18T01:16:11;11.30;;;10.30;;
16407;SDS011;8313;49.894;8.084;2022-08-18T01:18:55;11.50;;;10.30;;
16407;SDS011;8313;49.894;8.084;2022-08-18T01:21:42;11.27;;;10.17;;
16407;SDS011;8313;49.894;8.084;2022-08-18T01:24:24;11.50;;;10.30;;
16407;SDS011;8313;49.894;8.084;2022-08-18T01:27:11;10.67;;;9.43;;
16407;SDS011;8313;49.894;8.084;2022-08-18T01:29:42;10.57;;;9.57;;
16407;SDS011;8313;49.894;8.084;2022-08-18T01:32:16;11.97;;;10.87;;
16407;SDS011;8313;49.894;8.084;2022-08-18T01:34:49;11.03;;;9.93;;
16407;SDS011;8313;49.894;8.084;2022-08-18T01:37:16;11.30;;;10.20;;
16407;SDS011;8313;49.894;8.084;2022-08-18T01:39:44;11.87;;;10.33;;
16407;SDS011;8313;49.894;8.084;2022-08-18T01:42:11;11.50;;;10.30;;
16407;SDS011;8313;49.894;8.084;2022-08-18T01:44:41;10.93;;;9.83;;
16407;SDS011;8313;49.894;8.084;2022-08-18T01:47:12;10.20;;;9.27;;
16407;SDS011;8313;49.894;8.084;2022-08-18T01:49:39;11.17;;;10.07;;
16407;SDS011;8313;49.894;8.084;2022-08-18T01:52:07;12.83;;;10.10;;
16407;SDS011;8313;49.894;8.084;2022-08-18T01:54:34;12.10;;;10.90;;
16407;SDS011;8313;49.894;8.084;2022-08-18T01:56:59;11.23;;;10.23;;
16407;SDS011;8313;49.894;8.084;2022-08-18T01:59:26;13.40;;;11.40;;
16407;SDS011;8313;49.894;8.084;2022-08-18T02:01:51;14.70;;;9.87;;
16407;SDS011;8313;49.894;8.084;2022-08-18T02:04:21;11.00;;;10.00;;
16407;SDS011;8313;49.894;8.084;2022-08-18T02:06:51;10.80;;;9.80;;
16407;SDS011;8313;49.894;8.084;2022-08-18T02:09:17;12.00;;;10.87;;
16407;SDS011;8313;49.894;8.084;2022-08-18T02:11:43;10.87;;;9.83;;
16407;SDS011;8313;49.894;8.084;2022-08-18T02:14:08;10.60;;;9.60;;
16407;SDS011;8313;49.894;8.084;2022-08-18T02:16:34;10.43;;;9.53;;
16407;SDS011;8313;49.894;8.084;2022-08-18T02:19:00;11.10;;;10.10;;
16407;SDS011;8313;49.894;8.084;2022-08-18T02:21:25;10.60;;;9.60;;
16407;SDS011;8313;49.894;8.084;2022-08-18T02:23:51;11.20;;;10.20;;
16407;SDS011;8313;49.894;8.084;2022-08-18T02:26:17;10.83;;;9.87;;
16407;SDS011;8313;49.894;8.084;2022-08-18T02:28:43;10.60;;;9.60;;
16407;SDS011;8313;49.894;8.084;2022-08-18T02:31:10;10.17;;;9.27;;
16407;SDS011;8313;49.894;8.084;2022-08-18T02:33:39;10.53;;;9.53;;
16407;SDS011;8313;49.894;8.084;2022-08-18T02:36:06;10.10;;;9.13;;
16407;SDS011;8313;49.894;8.084;2022-08-18T02:38:32;9.97;;;8.97;;
16407;SDS011;8313;49.894;8.084;2022-08-18T02:40:59;11.00;;;9.17;;
16407;SDS011;8313;49.894;8.084;2022-08-18T02:43:27;9.33;;;8.43;;
16407;SDS011;8313;49.894;8.084;2022-08-18T02:45:53;10.13;;;9.23;;
16407;SDS011;8313;49.894;8.084;2022-08-18T02:48:19;10.70;;;9.60;;
16407;SDS011;8313;49.894;8.084;2022-08-18T02:53:29;10.30;;;9.30;;
16407;SDS011;8313;49.894;8.084;2022-08-18T02:56:04;10.00;;;9.00;;
16407;SDS011;8313;49.894;8.084;2022-08-18T02:58:51;9.90;;;9.00;;
16407;SDS011;8313;49.894;8.084;2022-08-18T03:01:20;9.57;;;8.67;;
16407;SDS011;8313;49.894;8.084;2022-08-18T03:03:47;9.47;;;8.67;;
16407;SDS011;8313;49.894;8.084;2022-08-18T03:06:14;9.00;;;8.03;;
16407;SDS011;8313;49.894;8.084;2022-08-18T03:08:42;9.17;;;8.37;;
16407;SDS011;8313;49.894;8.084;2022-08-18T03:11:13;8.53;;;7.67;;
16407;SDS011;8313;49.894;8.084;2022-08-18T03:13:49;9.23;;;8.33;;
16407;SDS011;8313;49.894;8.084;2022-08-18T03:16:16;9.37;;;8.57;;
16407;SDS011;8313;49.894;8.084;2022-08-18T03:18:43;9.17;;;8.13;;
16407;SDS011;8313;49.894;8.084;2022-08-18T03:21:14;9.00;;;8.20;;
16407;SDS011;8313;49.894;8.084;2022-08-18T03:23:43;8.83;;;7.90;;
16407;SDS011;8313;49.894;8.084;2022-08-18T03:26:10;8.90;;;8.07;;
16407;SDS011;8313;49.894;8.084;2022-08-18T03:28:39;8.70;;;7.80;;
16407;SDS011;8313;49.894;8.084;2022-08-18T03:31:07;8.87;;;8.00;;
16407;SDS011;8313;49.894;8.084;2022-08-18T03:33:33;9.00;;;8.20;;
16407;SDS011;8313;49.894;8.084;2022-08-18T03:36:04;9.50;;;8.57;;
16407;SDS011;8313;49.894;8.084;2022-08-18T03:38:36;9.40;;;8.23;;
16407;SDS011;8313;49.894;8.084;2022-08-18T03:41:07;9.33;;;8.23;;
16407;SDS011;8313;49.894;8.084;2022-08-18T03:43:34;10.23;;;7.87;;
16407;SDS011;8313;49.894;8.084;2022-08-18T03:46:01;11.03;;;9.93;;
16407;SDS011;8313;49.894;8.084;2022-08-18T03:48:28;9.73;;;8.73;;
16407;SDS011;8313;49.894;8.084;2022-08-18T03:51:01;9.60;;;8.70;;
16407;SDS011;8313;49.894;8.084;2022-08-18T03:53:28;9.33;;;8.30;;
16407;SDS011;8313;49.894;8.084;2022-08-18T03:55:54;9.73;;;8.83;;
16407;SDS011;8313;49.894;8.084;2022-08-18T03:58:19;13.57;;;9.10;;
16407;SDS011;8313;49.894;8.084;2022-08-18T04:00:45;10.13;;;9.10;;
16407;SDS011;8313;49.894;8.084;2022-08-18T04:03:11;11.00;;;9.63;;
16407;SDS011;8313;49.894;8.084;2022-08-18T04:05:40;9.83;;;8.83;;
16407;SDS011;8313;49.894;8.084;2022-08-18T04:08:06;11.30;;;10.20;;
16407;SDS011;8313;49.894;8.084;2022-08-18T04:10:32;10.53;;;9.40;;
16407;SDS011;8313;49.894;8.084;2022-08-18T04:12:59;11.63;;;10.30;;
16407;SDS011;8313;49.894;8.084;2022-08-18T04:15:29;13.90;;;10.33;;
16407;SDS011;8313;49.894;8.084;2022-08-18T04:17:59;9.67;;;8.67;;
16407;SDS011;8313;49.894;8.084;2022-08-18T04:20:28;9.83;;;8.87;;
16407;SDS011;8313;49.894;8.084;2022-08-18T04:22:57;9.63;;;8.63;;
16407;SDS011;8313;49.894;8.084;2022-08-18T04:25:23;9.10;;;8.20;;
16407;SDS011;8313;49.894;8.084;2022-08-18T04:27:50;10.20;;;9.20;;
16407;SDS011;8313;49.894;8.084;2022-08-18T04:30:15;10.40;;;9.33;;
16407;SDS011;8313;49.894;8.084;2022-08-18T04:32:42;9.37;;;8.43;;
16407;SDS011;8313;49.894;8.084;2022-08-18T04:35:08;12.57;;;8.77;;
16407;SDS011;8313;49.894;8.084;2022-08-18T04:37:35;12.53;;;9.30;;
16407;SDS011;8313;49.894;8.084;2022-08-18T04:40:02;9.87;;;8.93;;
16407;SDS011;8313;49.894;8.084;2022-08-18T04:42:29;10.40;;;9.37;;
16407;SDS011;8313;49.894;8.084;2022-08-18T04:44:54;10.30;;;9.30;;
16407;SDS011;8313;49.894;8.084;2022-08-18T04:47:22;10.13;;;9.20;;
16407;SDS011;8313;49.894;8.084;2022-08-18T04:49:47;9.33;;;8.17;;
16407;SDS011;8313;49.894;8.084;2022-08-18T04:52:14;10.53;;;9.10;;
16407;SDS011;8313;49.894;8.084;2022-08-18T04:54:59;9.73;;;8.73;;
16407;SDS011;8313;49.894;8.084;2022-08-18T04:57:26;10.53;;;8.67;;
16407;SDS011;8313;49.894;8.084;2022-08-18T04:59:52;10.60;;;9.50;;
16407;SDS011;8313;49.894;8.084;2022-08-18T05:02:19;11.00;;;9.90;;
16407;SDS011;8313;49.894;8.084;2022-08-18T05:04:45;11.17;;;9.90;;
16407;SDS011;8313;49.894;8.084;2022-08-18T05:07:12;9.60;;;8.60;;
16407;SDS011;8313;49.894;8.084;2022-08-18T05:09:40;9.70;;;8.70;;
16407;SDS011;8313;49.894;8.084;2022-08-18T05:12:07;9.53;;;8.73;;
16407;SDS011;8313;49.894;8.084;2022-08-18T05:14:36;9.60;;;8.60;;
16407;SDS011;8313;49.894;8.084;2022-08-18T05:17:03;10.17;;;9.27;;
16407;SDS011;8313;49.894;8.084;2022-08-18T05:19:29;9.47;;;8.57;;
16407;SDS011;8313;49.894;8.084;2022-08-18T05:21:55;9.80;;;8.87;;
16407;SDS011;8313;49.894;8.084;2022-08-18T05:24:23;10.07;;;8.50;;
16407;SDS011;8313;49.894;8.084;2022-08-18T05:26:50;11.33;;;8.80;;
16407;SDS011;8313;49.894;8.084;2022-08-18T05:29:17;11.33;;;9.87;;
16407;SDS011;8313;49.894;8.084;2022-08-18T05:31:46;10.60;;;8.73;;
16407;SDS011;8313;49.894;8.084;2022-08-18T05:34:13;9.37;;;8.47;;
16407;SDS011;8313;49.894;8.084;2022-08-18T05:41:45;9.53;;;8.67;;
16407;SDS011;8313;49.894;8.084;2022-08-18T05:44:13;9.87;;;8.87;;
16407;SDS011;8313;49.894;8.084;2022-08-18T05:46:43;10.10;;;8.87;;
16407;SDS011;8313;49.894;8.084;2022-08-18T05:49:37;10.40;;;9.40;;
16407;SDS011;8313;49.894;8.084;2022-08-18T05:52:05;10.10;;;8.37;;
16407;SDS011;8313;49.894;8.084;2022-08-18T05:54:55;10.50;;;8.70;;
16407;SDS011;8313;49.894;8.084;2022-08-18T05:57:53;9.67;;;8.77;;
16407;SDS011;8313;49.894;8.084;2022-08-18T06:00:29;10.53;;;9.40;;
16407;SDS011;8313;49.894;8.084;2022-08-18T06:02:57;9.60;;;8.70;;
16407;SDS011;8313;49.894;8.084;2022-08-18T06:05:52;10.37;;;9.20;;
16407;SDS011;8313;49.894;8.084;2022-08-18T06:08:23;9.97;;;8.87;;
16407;SDS011;8313;49.894;8.084;2022-08-18T06:10:59;9.90;;;8.90;;
16407;SDS011;8313;49.894;8.084;2022-08-18T06:13:24;8.63;;;7.83;;
16407;SDS011;8313;49.894;8.084;2022-08-18T06:30:16;10.97;;;9.97;;
16407;SDS011;8313;49.894;8.084;2022-08-18T06:40:45;12.07;;;10.20;;
16407;SDS011;8313;49.894;8.084;2022-08-18T06:43:12;11.27;;;10.20;;
16407;SDS011;8313;49.894;8.084;2022-08-18T06:45:44;10.70;;;9.70;;
16407;SDS011;8313;49.894;8.084;2022-08-18T06:51:20;12.43;;;10.67;;
16407;SDS011;8313;49.894;8.084;2022-08-18T06:53:56;11.70;;;10.60;;
16407;SDS011;8313;49.894;8.084;2022-08-18T07:01:53;14.60;;;12.37;;
16407;SDS011;8313;49.894;8.084;2022-08-18T07:04:39;15.10;;;11.57;;
16407;SDS011;8313;49.894;8.084;2022-08-18T07:07:29;11.20;;;10.00;;
16407;SDS011;8313;49.894;8.084;2022-08-18T07:10:00;13.47;;;11.97;;
16407;SDS011;8313;49.894;8.084;2022-08-18T07:12:28;13.33;;;11.93;;
16407;SDS011;8313;49.894;8.084;2022-08-18T07:14:59;14.90;;;12.07;;
16407;SDS011;8313;49.894;8.084;2022-08-18T07:17:28;12.17;;;10.87;;
16407;SDS011;8313;49.894;8.084;2022-08-18T07:19:58;13.33;;;11.93;;
16407;SDS011;8313;49.894;8.084;2022-08-18T07:22:31;14.07;;;11.97;;
16407;SDS011;8313;49.894;8.084;2022-08-18T07:25:18;13.27;;;11.30;;
16407;SDS011;8313;49.894;8.084;2022-08-18T07:27:51;14.70;;;11.87;;
16407;SDS011;8313;49.894;8.084;2022-08-18T07:35:24;12.40;;;11.20;;
16407;SDS011;8313;49.894;8.084;2022-08-18T07:37:59;11.90;;;10.80;;
16407;SDS011;8313;49.894;8.084;2022-08-18T07:40:34;14.40;;;10.87;;
16407;SDS011;8313;49.894;8.084;2022-08-18T07:43:15;11.27;;;10.10;;
16407;SDS011;8313;49.894;8.084;2022-08-18T07:45:45;11.87;;;10.77;;
16407;SDS011;8313;49.894;8.084;2022-08-18T07:48:13;11.70;;;10.50;;
16407;SDS011;8313;49.894;8.084;2022-08-18T07:50:45;11.17;;;10.07;;
16407;SDS011;8313;49.894;8.084;2022-08-18T07:56:15;11.73;;;10.53;;
16407;SDS011;8313;49.894;8.084;2022-08-18T08:02:38;11.50;;;10.30;;
16407;SDS011;8313;49.894;8.084;2022-08-18T08:07:42;10.40;;;9.27;;
16407;SDS011;8313;49.894;8.084;2022-08-18T08:20:42;12.47;;;11.17;;
16407;SDS011;8313;49.894;8.084;2022-08-18T08:31:35;10.57;;;9.53;;
16407;SDS011;8313;49.894;8.084;2022-08-18T08:34:20;11.27;;;10.13;;
16407;SDS011;8313;49.894;8.084;2022-08-18T08:36:53;11.67;;;10.57;;
16407;SDS011;8313;49.894;8.084;2022-08-18T08:39:31;10.93;;;9.83;;
16407;SDS011;8313;49.894;8.084;2022-08-18T08:42:13;12.73;;;11.30;;
16407;SDS011;8313;49.894;8.084;2022-08-18T08:44:51;11.73;;;10.07;;
16407;SDS011;8313;49.894;8.084;2022-08-18T08:47:23;10.70;;;9.60;;
16407;SDS011;8313;49.894;8.084;2022-08-18T08:49:57;11.27;;;10.13;;
16407;SDS011;8313;49.894;8.084;2022-08-18T08:53:01;10.87;;;9.70;;
16407;SDS011;8313;49.894;8.084;2022-08-18T08:55:44;11.00;;;10.00;;
16407;SDS011;8313;49.894;8.084;2022-08-18T08:58:25;10.63;;;9.63;;
16407;SDS011;8313;49.894;8.084;2022-08-18T09:01:21;10.20;;;9.20;;
16407;SDS011;8313;49.894;8.084;2022-08-18T09:23:09;9.43;;;8.60;;
16407;SDS011;8313;49.894;8.084;2022-08-18T09:36:52;10.13;;;9.20;;
16407;SDS011;8313;49.894;8.084;2022-08-18T09:39:42;10.50;;;9.50;;
16407;SDS011;8313;49.894;8.084;2022-08-18T09:42:47;11.00;;;9.87;;
16407;SDS011;8313;49.894;8.084;2022-08-18T09:47:56;10.80;;;9.70;;
16407;SDS011;8313;49.894;8.084;2022-08-18T10:01:56;10.17;;;9.17;;
16407;SDS011;8313;49.894;8.084;2022-08-18T10:04:24;11.67;;;10.50;;
16407;SDS011;8313;49.894;8.084;2022-08-18T10:06:52;10.90;;;9.60;;
16407;SDS011;8313;49.894;8.084;2022-08-18T10:12:09;11.50;;;10.50;;
16407;SDS011;8313;49.894;8.084;2022-08-18T10:22:44;12.00;;;10.80;;
16407;SDS011;8313;49.894;8.084;2022-08-18T10:25:12;11.03;;;9.77;;
16407;SDS011;8313;49.894;8.084;2022-08-18T10:27:54;10.60;;;9.50;;
16407;SDS011;8313;49.894;8.084;2022-08-18T10:32:58;10.40;;;9.40;;
16407;SDS011;8313;49.894;8.084;2022-08-18T10:38:01;10.90;;;9.80;;
16407;SDS011;8313;49.894;8.084;2022-08-18T10:40:39;10.50;;;9.50;;
16407;SDS011;8313;49.894;8.084;2022-08-18T10:45:48;11.00;;;10.00;;
16407;SDS011;8313;49.894;8.084;2022-08-18T10:48:18;10.70;;;9.70;;
16407;SDS011;8313;49.894;8.084;2022-08-18T10:53:33;10.83;;;9.83;;
16407;SDS011;8313;49.894;8.084;2022-08-18T10:59:43;10.60;;;9.50;;
16407;SDS011;8313;49.894;8.084;2022-08-18T11:06:50;10.13;;;9.13;;
16407;SDS011;8313;49.894;8.084;2022-08-18T11:09:28;10.93;;;9.83;;
16407;SDS011;8313;49.894;8.084;2022-08-18T11:11:56;12.67;;;11.37;;
16407;SDS011;8313;49.894;8.084;2022-08-18T11:14:34;11.67;;;10.57;;
16407;SDS011;8313;49.894;8.084;2022-08-18T11:19:44;11.60;;;9.60;;
16407;SDS011;8313;49.894;8.084;2022-08-18T11:22:27;10.87;;;9.90;;
16407;SDS011;8313;49.894;8.084;2022-08-18T11:24:54;10.97;;;9.87;;
16407;SDS011;8313;49.894;8.084;2022-08-18T11:27:21;14.60;;;11.47;;
16407;SDS011;8313;49.894;8.084;2022-08-18T11:29:50;11.70;;;10.60;;
16407;SDS011;8313;49.894;8.084;2022-08-18T11:32:30;11.90;;;10.40;;
16407;SDS011;8313;49.894;8.084;2022-08-18T11:42:53;12.37;;;11.10;;
16407;SDS011;8313;49.894;8.084;2022-08-18T11:45:26;11.40;;;10.23;;
16407;SDS011;8313;49.894;8.084;2022-08-18T11:47:58;11.93;;;10.47;;
16407;SDS011;8313;49.894;8.084;2022-08-18T11:50:33;10.37;;;8.97;;
16407;SDS011;8313;49.894;8.084;2022-08-18T11:53:24;11.40;;;10.30;;
16407;SDS011;8313;49.894;8.084;2022-08-18T11:58:48;10.00;;;8.90;;
16407;SDS011;8313;49.894;8.084;2022-08-18T12:09:38;11.60;;;10.50;;
16407;SDS011;8313;49.894;8.084;2022-08-18T12:17:27;10.20;;;9.13;;
16407;SDS011;8313;49.894;8.084;2022-08-18T12:19:54;10.80;;;9.70;;
16407;SDS011;8313;49.894;8.084;2022-08-18T12:22:23;11.10;;;10.10;;
16407;SDS011;8313;49.894;8.084;2022-08-18T12:24:51;10.70;;;9.70;;
16407;SDS011;8313;49.894;8.084;2022-08-18T12:27:18;11.67;;;10.57;;
16407;SDS011;8313;49.894;8.084;2022-08-18T12:29:46;13.20;;;10.43;;
16407;SDS011;8313;49.894;8.084;2022-08-18T12:32:12;10.17;;;9.03;;
16407;SDS011;8313;49.894;8.084;2022-08-18T12:34:38;11.10;;;9.67;;
16407;SDS011;8313;49.894;8.084;2022-08-18T12:37:06;11.97;;;10.87;;
16407;SDS011;8313;49.894;8.084;2022-08-18T12:39:34;11.60;;;10.00;;
16407;SDS011;8313;49.894;8.084;2022-08-18T12:42:00;11.70;;;10.20;;
16407;SDS011;8313;49.894;8.084;2022-08-18T12:44:26;11.33;;;10.33;;
16407;SDS011;8313;49.894;8.084;2022-08-18T12:46:52;10.80;;;9.87;;
16407;SDS011;8313;49.894;8.084;2022-08-18T12:49:20;10.97;;;9.90;;
16407;SDS011;8313;49.894;8.084;2022-08-18T12:51:48;9.83;;;8.93;;
16407;SDS011;8313;49.894;8.084;2022-08-18T12:54:15;10.60;;;9.50;;
16407;SDS011;8313;49.894;8.084;2022-08-18T12:56:41;10.67;;;9.67;;
16407;SDS011;8313;49.894;8.084;2022-08-18T12:59:08;10.23;;;9.33;;
16407;SDS011;8313;49.894;8.084;2022-08-18T13:01:35;11.00;;;9.97;;
16407;SDS011;8313;49.894;8.084;2022-08-18T13:04:02;9.97;;;9.07;;
16407;SDS011;8313;49.894;8.084;2022-08-18T13:06:29;10.17;;;9.27;;
16407;SDS011;8313;49.894;8.084;2022-08-18T13:08:58;10.90;;;9.90;;
16407;SDS011;8313;49.894;8.084;2022-08-18T13:11:24;12.60;;;10.33;;
16407;SDS011;8313;49.894;8.084;2022-08-18T13:13:50;9.40;;;8.60;;
16407;SDS011;8313;49.894;8.084;2022-08-18T13:16:18;10.20;;;9.20;;
16407;SDS011;8313;49.894;8.084;2022-08-18T13:18:44;9.80;;;8.80;;
16407;SDS011;8313;49.894;8.084;2022-08-18T13:21:10;10.37;;;9.30;;
16407;SDS011;8313;49.894;8.084;2022-08-18T13:23:38;11.63;;;9.27;;
16407;SDS011;8313;49.894;8.084;2022-08-18T13:26:05;11.40;;;9.17;;
16407;SDS011;8313;49.894;8.084;2022-08-18T13:28:34;10.20;;;9.30;;
16407;SDS011;8313;49.894;8.084;2022-08-18T13:31:01;12.70;;;9.90;;
16407;SDS011;8313;49.894;8.084;2022-08-18T13:33:27;10.73;;;9.60;;
16407;SDS011;8313;49.894;8.084;2022-08-18T13:35:54;11.90;;;9.83;;
16407;SDS011;8313;49.894;8.084;2022-08-18T13:38:20;10.80;;;9.80;;
16407;SDS011;8313;49.894;8.084;2022-08-18T13:40:51;11.70;;;10.50;;
16407;SDS011;8313;49.894;8.084;2022-08-18T13:43:19;10.60;;;9.50;;
16407;SDS011;8313;49.894;8.084;2022-08-18T13:45:49;10.80;;;9.73;;
16407;SDS011;8313;49.894;8.084;2022-08-18T13:48:15;10.53;;;9.50;;
16407;SDS011;8313;49.894;8.084;2022-08-18T13:50:42;10.13;;;9.13;;
16407;SDS011;8313;49.894;8.084;2022-08-18T13:53:15;9.70;;;8.80;;
16407;SDS011;8313;49.894;8.084;2022-08-18T13:55:46;10.27;;;9.27;;
16407;SDS011;8313;49.894;8.084;2022-08-18T13:58:12;10.07;;;9.07;;
16407;SDS011;8313;49.894;8.084;2022-08-18T14:00:38;13.80;;;9.83;;
16407;SDS011;8313;49.894;8.084;2022-08-18T14:03:05;9.40;;;8.50;;
16407;SDS011;8313;49.894;8.084;2022-08-18T14:05:32;10.30;;;9.30;;
16407;SDS011;8313;49.894;8.084;2022-08-18T14:07:58;10.37;;;9.27;;
16407;SDS011;8313;49.894;8.084;2022-08-18T14:10:24;11.50;;;8.33;;
16407;SDS011;8313;49.894;8.084;2022-08-18T14:12:54;11.17;;;9.97;;
16407;SDS011;8313;49.894;8.084;2022-08-18T14:15:21;9.67;;;8.73;;
16407;SDS011;8313;49.894;8.084;2022-08-18T14:17:48;11.67;;;10.47;;
16407;SDS011;8313;49.894;8.084;2022-08-18T14:20:14;13.10;;;10.10;;
16407;SDS011;8313;49.894;8.084;2022-08-18T14:22:59;10.83;;;9.73;;
16407;SDS011;8313;49.894;8.084;2022-08-18T14:25:45;10.87;;;9.87;;
16407;SDS011;8313;49.894;8.084;2022-08-18T14:28:29;11.27;;;10.07;;
16407;SDS011;8313;49.894;8.084;2022-08-18T14:30:56;11.67;;;10.40;;
16407;SDS011;8313;49.894;8.084;2022-08-18T14:33:23;12.70;;;10.57;;
16407;SDS011;8313;49.894;8.084;2022-08-18T14:35:50;11.77;;;10.67;;
16407;SDS011;8313;49.894;8.084;2022-08-18T14:38:16;11.03;;;9.93;;
16407;SDS011;8313;49.894;8.084;2022-08-18T14:40:43;12.17;;;10.80;;
16407;SDS011;8313;49.894;8.084;2022-08-18T14:43:10;12.33;;;11.13;;
16407;SDS011;8313;49.894;8.084;2022-08-18T14:45:37;12.43;;;11.20;;
16407;SDS011;8313;49.894;8.084;2022-08-18T14:48:04;12.07;;;10.87;;
16407;SDS011;8313;49.894;8.084;2022-08-18T14:50:30;13.00;;;9.83;;
16407;SDS011;8313;49.894;8.084;2022-08-18T14:52:56;12.27;;;10.90;;
16407;SDS011;8313;49.894;8.084;2022-08-18T14:55:22;15.20;;;12.10;;
16407;SDS011;8313;49.894;8.084;2022-08-18T14:57:48;14.07;;;11.27;;
16407;SDS011;8313;49.894;8.084;2022-08-18T15:00:15;13.43;;;12.10;;
16407;SDS011;8313;49.894;8.084;2022-08-18T15:02:43;13.50;;;12.07;;
16407;SDS011;8313;49.894;8.084;2022-08-18T15:05:10;13.80;;;12.27;;
16407;SDS011;8313;49.894;8.084;2022-08-18T15:07:37;13.80;;;12.40;;
16407;SDS011;8313;49.894;8.084;2022-08-18T15:10:04;13.43;;;12.03;;
16407;SDS011;8313;49.894;8.084;2022-08-18T15:12:31;14.50;;;13.02;;
16407;SDS011;8313;49.894;8.084;2022-08-18T15:14:57;13.25;;;11.95;;
16407;SDS011;8313;49.894;8.084;2022-08-18T15:17:24;14.80;;;13.27;;
16407;SDS011;8313;49.894;8.084;2022-08-18T15:19:53;15.40;;;13.10;;
16407;SDS011;8313;49.894;8.084;2022-08-18T15:22:19;15.93;;;13.60;;
16407;SDS011;8313;49.894;8.084;2022-08-18T15:25:05;15.88;;;14.23;;
16407;SDS011;8313;49.894;8.084;2022-08-18T15:27:50;16.60;;;14.47;;
16407;SDS011;8313;49.894;8.084;2022-08-18T15:30:16;18.23;;;15.68;;
16407;SDS011;8313;49.894;8.084;2022-08-18T15:32:44;21.23;;;16.07;;
16407;SDS011;8313;49.894;8.084;2022-08-18T15:35:11;17.03;;;15.20;;
16407;SDS011;8313;49.894;8.084;2022-08-18T15:37:41;16.00;;;14.13;;
16407;SDS011;8313;49.894;8.084;2022-08-18T15:40:16;17.90;;;14.93;;
16407;SDS011;8313;49.894;8.084;2022-08-18T15:42:45;18.90;;;15.60;;
16407;SDS011;8313;49.894;8.084;2022-08-18T15:45:22;16.67;;;14.50;;
16407;SDS011;8313;49.894;8.084;2022-08-18T15:47:50;17.13;;;15.40;;
16407;SDS011;8313;49.894;8.084;2022-08-18T15:50:17;16.67;;;14.83;;
16407;SDS011;8313;49.894;8.084;2022-08-18T15:52:47;16.00;;;14.40;;
16407;SDS011;8313;49.894;8.084;2022-08-18T15:55:22;14.33;;;12.77;;
16407;SDS011;8313;49.894;8.084;2022-08-18T15:57:49;14.67;;;13.03;;
16407;SDS011;8313;49.894;8.084;2022-08-18T16:00:16;16.30;;;13.90;;
16407;SDS011;8313;49.894;8.084;2022-08-18T16:02:48;16.10;;;14.00;;
16407;SDS011;8313;49.894;8.084;2022-08-18T16:05:21;14.10;;;12.70;;
16407;SDS011;8313;49.894;8.084;2022-08-18T16:07:49;14.47;;;12.40;;
16407;SDS011;8313;49.894;8.084;2022-08-18T16:10:16;12.20;;;10.90;;
16407;SDS011;8313;49.894;8.084;2022-08-18T16:12:44;12.57;;;10.97;;
16407;SDS011;8313;49.894;8.084;2022-08-18T16:15:15;12.27;;;10.83;;
16407;SDS011;8313;49.894;8.084;2022-08-18T16:17:43;11.67;;;10.47;;
16407;SDS011;8313;49.894;8.084;2022-08-18T16:20:09;12.47;;;10.47;;
16407;SDS011;8313;49.894;8.084;2022-08-18T16:22:36;11.27;;;10.00;;
16407;SDS011;8313;49.894;8.084;2022-08-18T16:25:03;10.23;;;9.23;;
16407;SDS011;8313;49.894;8.084;2022-08-18T16:27:30;11.23;;;10.03;;
16407;SDS011;8313;49.894;8.084;2022-08-18T16:29:58;11.87;;;10.33;;
16407;SDS011;8313;49.894;8.084;2022-08-18T16:32:24;10.93;;;9.70;;
16407;SDS011;8313;49.894;8.084;2022-08-18T16:34:50;11.00;;;9.90;;
16407;SDS011;8313;49.894;8.084;2022-08-18T16:37:17;11.07;;;9.30;;
16407;SDS011;8313;49.894;8.084;2022-08-18T16:39:43;13.83;;;9.30;;
16407;SDS011;8313;49.894;8.084;2022-08-18T16:42:08;10.60;;;9.53;;
16407;SDS011;8313;49.894;8.084;2022-08-18T16:44:36;11.03;;;9.40;;
16407;SDS011;8313;49.894;8.084;2022-08-18T16:47:03;10.43;;;9.20;;
16407;SDS011;8313;49.894;8.084;2022-08-18T16:49:29;12.63;;;9.50;;
16407;SDS011;8313;49.894;8.084;2022-08-18T16:51:55;10.67;;;9.57;;
16407;SDS011;8313;49.894;8.084;2022-08-18T16:54:22;11.20;;;10.03;;
16407;SDS011;8313;49.894;8.084;2022-08-18T16:56:48;10.77;;;9.57;;
16407;SDS011;8313;49.894;8.084;2022-08-18T16:59:13;12.37;;;10.60;;
16407;SDS011;8313;49.894;8.084;2022-08-18T17:01:58;10.73;;;9.63;;
16407;SDS011;8313;49.894;8.084;2022-08-18T17:04:42;16.00;;;10.63;;
16407;SDS011;8313;49.894;8.084;2022-08-18T17:07:08;10.57;;;9.00;;
16407;SDS011;8313;49.894;8.084;2022-08-18T17:09:34;12.17;;;9.10;;
16407;SDS011;8313;49.894;8.084;2022-08-18T17:11:59;11.10;;;10.00;;
16407;SDS011;8313;49.894;8.084;2022-08-18T17:14:26;12.10;;;9.93;;
16407;SDS011;8313;49.894;8.084;2022-08-18T17:16:54;9.70;;;8.70;;
16407;SDS011;8313;49.894;8.084;2022-08-18T17:19:22;10.07;;;7.90;;
16407;SDS011;8313;49.894;8.084;2022-08-18T17:21:50;10.70;;;9.60;;
16407;SDS011;8313;49.894;8.084;2022-08-18T17:24:16;10.80;;;9.57;;
16407;SDS011;8313;49.894;8.084;2022-08-18T17:26:54;9.70;;;8.63;;
16407;SDS011;8313;49.894;8.084;2022-08-18T17:32:19;11.50;;;9.57;;
16407;SDS011;8313;49.894;8.084;2022-08-18T17:34:52;9.73;;;8.50;;
16407;SDS011;8313;49.894;8.084;2022-08-18T17:37:25;10.50;;;8.80;;
16407;SDS011;8313;49.894;8.084;2022-08-18T17:39:57;10.93;;;8.83;;
16407;SDS011;8313;49.894;8.084;2022-08-18T17:42:37;10.23;;;8.47;;
16407;SDS011;8313;49.894;8.084;2022-08-18T17:45:04;13.20;;;9.37;;
16407;SDS011;8313;49.894;8.084;2022-08-18T17:47:35;10.93;;;9.27;;
16407;SDS011;8313;49.894;8.084;2022-08-18T17:50:07;11.97;;;9.37;;
16407;SDS011;8313;49.894;8.084;2022-08-18T17:53:08;9.50;;;8.50;;
16407;SDS011;8313;49.894;8.084;2022-08-18T17:55:40;9.80;;;8.80;;
16407;SDS011;8313;49.894;8.084;2022-08-18T17:58:13;11.60;;;9.80;;
16407;SDS011;8313;49.894;8.084;2022-08-18T18:00:45;10.83;;;9.40;;